createdAt,value
2017-03-29T00:01:13.081Z,19.1
2017-03-29T00:02:13.013Z,19.1
2017-03-29T00:03:12.949Z,19.2
2017-03-29T00:04:12.888Z,19.01
2017-03-29T00:05:12.825Z,19.1
2017-03-29T00:06:12.763Z,19.01
2017-03-29T00:07:12.699Z,19.01
2017-03-29T00:08:12.640Z,19.1
2017-03-29T00:09:12.577Z,19.01
2017-03-29T00:10:12.516Z,19.01
2017-03-29T00:11:12.449Z,19.01
2017-03-29T00:12:12.387Z,19.01
2017-03-29T00:13:12.325Z,19.01
2017-03-29T00:14:11.954Z,19.01
2017-03-29T00:15:12.202Z,19.01
2017-03-29T00:16:12.138Z,18.82
2017-03-29T00:17:12.081Z,19.01
2017-03-29T00:18:12.011Z,19.01
2017-03-29T00:19:11.952Z,19.01
2017-03-29T00:20:11.893Z,18.91
2017-03-29T00:21:11.830Z,18.91
2017-03-29T00:22:12.148Z,19.1
2017-03-29T00:23:11.702Z,19.01
2017-03-29T00:24:11.638Z,19.01
2017-03-29T00:25:11.580Z,18.91
2017-03-29T00:26:11.517Z,18.91
2017-03-29T00:27:11.459Z,18.91
2017-03-29T00:28:11.081Z,19.01
2017-03-29T00:29:11.330Z,18.91
2017-03-29T00:30:11.266Z,19.01
2017-03-29T00:31:11.203Z,18.91
2017-03-29T00:32:11.144Z,19.01
2017-03-29T00:33:11.084Z,18.82
2017-03-29T00:34:11.017Z,18.91
2017-03-29T00:35:10.957Z,18.91
2017-03-29T00:36:10.894Z,19.2
2017-03-29T00:37:10.832Z,19.2
2017-03-29T00:38:10.775Z,19.1
2017-03-29T00:39:10.705Z,19.2
2017-03-29T00:40:10.645Z,19.3
2017-03-29T00:41:10.611Z,19.3
2017-03-29T00:42:10.523Z,19.2
2017-03-29T00:43:10.456Z,19.1
2017-03-29T00:44:10.392Z,19.3
2017-03-29T00:45:10.360Z,19.3
2017-03-29T00:46:10.271Z,19.2
2017-03-29T00:47:10.209Z,19.2
2017-03-29T00:48:10.143Z,19.3
2017-03-29T00:49:10.082Z,19.3
2017-03-29T00:50:10.022Z,19.3
2017-03-29T00:51:09.955Z,19.2
2017-03-29T00:52:09.895Z,19.3
2017-03-29T00:53:09.835Z,19.2
2017-03-29T00:54:09.461Z,19.1
2017-03-29T00:55:09.712Z,19.01
2017-03-29T00:56:09.644Z,19.1
2017-03-29T00:57:09.273Z,19.3
2017-03-29T00:58:09.520Z,19.49
2017-03-29T00:59:09.459Z,19.3
2017-03-29T01:00:09.396Z,19.4
2017-03-29T01:01:09.335Z,19.3
2017-03-29T01:02:09.270Z,19.4
2017-03-29T01:03:09.210Z,19.4
2017-03-29T01:04:09.145Z,19.3
2017-03-29T01:05:09.085Z,19.4
2017-03-29T01:06:09.018Z,19.4
2017-03-29T01:07:08.958Z,19.59
2017-03-29T01:08:08.898Z,19.59
2017-03-29T01:09:08.836Z,19.4
2017-03-29T01:10:08.480Z,19.68
2017-03-29T01:11:08.712Z,19.59
2017-03-29T01:12:08.647Z,19.59
2017-03-29T01:13:08.582Z,19.59
2017-03-29T01:14:08.520Z,19.78
2017-03-29T01:15:08.488Z,19.68
2017-03-29T01:16:08.399Z,19.68
2017-03-29T01:17:08.332Z,19.59
2017-03-29T01:18:08.271Z,19.59
2017-03-29T01:19:08.210Z,19.68
2017-03-29T01:20:08.146Z,19.59
2017-03-29T01:21:07.774Z,19.78
2017-03-29T01:22:08.024Z,19.78
2017-03-29T01:23:07.961Z,19.68
2017-03-29T01:24:07.899Z,19.78
2017-03-29T01:25:07.836Z,19.68
2017-03-29T01:26:07.466Z,19.78
2017-03-29T01:27:07.710Z,19.88
2017-03-29T01:28:07.658Z,19.88
2017-03-29T01:29:07.586Z,19.78
2017-03-29T01:30:07.524Z,19.68
2017-03-29T01:31:07.461Z,19.88
2017-03-29T01:32:07.399Z,20.07
2017-03-29T01:33:07.337Z,20.17
2017-03-29T01:34:07.275Z,20.17
2017-03-29T01:35:07.211Z,20.17
2017-03-29T01:36:06.843Z,20.26
2017-03-29T01:37:07.087Z,20.17
2017-03-29T01:38:07.027Z,20.17
2017-03-29T01:39:06.962Z,20.17
2017-03-29T01:40:06.900Z,20.07
2017-03-29T01:41:06.839Z,20.07
2017-03-29T01:42:06.805Z,20.36
2017-03-29T01:43:06.712Z,20.56
2017-03-29T01:44:06.649Z,20.93
2017-03-29T01:45:06.586Z,21.12
2017-03-29T01:46:06.536Z,20.94
2017-03-29T01:47:06.461Z,21.41
2017-03-29T01:48:06.402Z,21.41
2017-03-29T01:49:06.336Z,21.41
2017-03-29T01:50:06.273Z,21.61
2017-03-29T01:51:06.214Z,21.51
2017-03-29T01:52:06.147Z,21.51
2017-03-29T01:53:06.086Z,21.51
2017-03-29T01:54:06.022Z,21.41
2017-03-29T01:55:05.959Z,21.12
2017-03-29T01:56:05.901Z,21.12
2017-03-29T01:57:05.836Z,21.62
2017-03-29T01:58:05.772Z,21.04
2017-03-29T01:59:05.711Z,21.12
2017-03-29T02:00:05.337Z,21.04
2017-03-29T02:01:05.586Z,21.04
2017-03-29T02:02:05.522Z,20.94
2017-03-29T02:03:05.459Z,20.94
2017-03-29T02:04:05.398Z,20.94
2017-03-29T02:05:05.024Z,20.94
2017-03-29T02:06:05.272Z,21.03
2017-03-29T02:07:05.211Z,20.93
2017-03-29T02:08:05.145Z,20.94
2017-03-29T02:09:05.110Z,21.13
2017-03-29T02:10:05.024Z,21.03
2017-03-29T02:11:04.960Z,20.94
2017-03-29T02:12:04.896Z,20.93
2017-03-29T02:13:04.830Z,21.03
2017-03-29T02:14:04.772Z,21.12
2017-03-29T02:15:04.713Z,21.13
2017-03-29T02:16:04.672Z,20.84
2017-03-29T02:17:04.585Z,21.04
2017-03-29T02:18:04.528Z,21.23
2017-03-29T02:19:04.459Z,21.33
2017-03-29T02:20:04.395Z,21.33
2017-03-29T02:21:04.022Z,21.31
2017-03-29T02:22:03.965Z,21.13
2017-03-29T02:23:03.898Z,21.41
2017-03-29T02:24:04.146Z,21.52
2017-03-29T02:25:03.774Z,21.13
2017-03-29T02:26:04.020Z,21.33
2017-03-29T02:27:03.959Z,21.42
2017-03-29T02:28:04.268Z,21.33
2017-03-29T02:29:03.832Z,21.23
2017-03-29T02:30:03.770Z,21.42
2017-03-29T02:31:03.712Z,21.61
2017-03-29T02:32:03.652Z,21.33
2017-03-29T02:33:03.582Z,21.62
2017-03-29T02:34:03.521Z,21.42
2017-03-29T02:35:03.146Z,21.52
2017-03-29T02:36:03.397Z,21.81
2017-03-29T02:37:03.335Z,21.62
2017-03-29T02:38:03.269Z,21.8
2017-03-29T02:39:03.228Z,21.81
2017-03-29T02:40:03.147Z,21.81
2017-03-29T02:41:03.079Z,21.62
2017-03-29T02:42:03.017Z,21.62
2017-03-29T02:43:02.961Z,21.62
2017-03-29T02:44:02.898Z,21.71
2017-03-29T02:45:02.832Z,21.71
2017-03-29T02:46:02.772Z,21.8
2017-03-29T02:47:02.706Z,21.52
2017-03-29T02:48:02.644Z,21.8
2017-03-29T02:49:02.580Z,21.62
2017-03-29T02:50:02.520Z,21.7
2017-03-29T02:51:02.457Z,21.81
2017-03-29T02:52:02.394Z,21.62
2017-03-29T02:53:02.332Z,21.61
2017-03-29T02:54:02.268Z,21.7
2017-03-29T02:55:02.206Z,21.71
2017-03-29T02:56:02.141Z,21.71
2017-03-29T02:57:02.075Z,21.62
2017-03-29T02:58:02.016Z,21.71
2017-03-29T02:59:01.956Z,21.81
2017-03-29T03:00:01.892Z,21.8
2017-03-29T03:01:01.827Z,21.81
2017-03-29T03:02:01.457Z,21.81
2017-03-29T03:03:01.704Z,21.8
2017-03-29T03:04:01.641Z,21.7
2017-03-29T03:05:01.578Z,21.7
2017-03-29T03:06:01.521Z,21.7
2017-03-29T03:07:01.454Z,21.7
2017-03-29T03:08:01.388Z,21.7
2017-03-29T03:09:01.332Z,21.61
2017-03-29T03:10:01.267Z,21.61
2017-03-29T03:11:01.204Z,21.61
2017-03-29T03:12:01.143Z,21.62
2017-03-29T03:13:01.079Z,21.7
2017-03-29T03:14:01.013Z,21.61
2017-03-29T03:15:00.958Z,21.61
2017-03-29T03:16:00.888Z,21.7
2017-03-29T03:17:00.520Z,21.61
2017-03-29T03:18:00.767Z,21.51
2017-03-29T03:19:00.702Z,21.7
2017-03-29T03:20:00.640Z,21.8
2017-03-29T03:21:00.574Z,21.7
2017-03-29T03:22:00.518Z,22.19
2017-03-29T03:23:00.451Z,21.8
2017-03-29T03:24:00.386Z,22.19
2017-03-29T03:25:00.327Z,22.09
2017-03-29T03:26:00.266Z,22.19
2017-03-29T03:27:00.203Z,21.8
2017-03-29T03:28:00.138Z,22.19
2017-03-29T03:29:00.077Z,22.09
2017-03-29T03:30:00.017Z,22.19
2017-03-29T03:30:59.948Z,22.28
2017-03-29T03:31:59.888Z,22.28
2017-03-29T03:32:59.824Z,22.28
2017-03-29T03:33:59.761Z,22.28
2017-03-29T03:34:59.393Z,22.28
2017-03-29T03:35:59.635Z,22.28
2017-03-29T03:36:59.571Z,22.19
2017-03-29T03:37:59.513Z,22.19
2017-03-29T03:38:59.449Z,22.19
2017-03-29T03:39:59.385Z,22.28
2017-03-29T03:40:59.322Z,22.19
2017-03-29T03:41:59.257Z,22.38
2017-03-29T03:42:59.198Z,22.38
2017-03-29T03:43:59.160Z,22.19
2017-03-29T03:44:59.073Z,22.47
2017-03-29T03:45:59.009Z,22.28
2017-03-29T03:46:58.947Z,22.38
2017-03-29T03:47:58.880Z,22.47
2017-03-29T03:48:58.826Z,22.38
2017-03-29T03:49:58.759Z,22.67
2017-03-29T03:50:58.695Z,22.57
2017-03-29T03:51:58.635Z,22.67
2017-03-29T03:52:58.570Z,22.67
2017-03-29T03:53:58.505Z,22.38
2017-03-29T03:54:58.445Z,22.67
2017-03-29T03:55:58.381Z,22.47
2017-03-29T03:56:58.317Z,22.57
2017-03-29T03:57:58.255Z,22.47
2017-03-29T03:58:58.204Z,22.47
2017-03-29T03:59:58.130Z,22.57
2017-03-29T04:00:58.069Z,22.47
2017-03-29T04:01:58.033Z,22.57
2017-03-29T04:02:57.940Z,22.28
2017-03-29T04:03:57.881Z,22.09
2017-03-29T04:04:57.815Z,21.8
2017-03-29T04:05:57.762Z,22.28
2017-03-29T04:06:57.404Z,22.38
2017-03-29T04:07:57.629Z,22.28
2017-03-29T04:08:57.566Z,22.57
2017-03-29T04:09:57.504Z,22.67
2017-03-29T04:10:57.442Z,22.47
2017-03-29T04:11:57.379Z,22.47
2017-03-29T04:12:57.314Z,22.38
2017-03-29T04:13:57.254Z,22.57
2017-03-29T04:14:57.558Z,22.47
2017-03-29T04:15:57.127Z,22.67
2017-03-29T04:16:57.068Z,22.86
2017-03-29T04:17:57.007Z,22.76
2017-03-29T04:18:56.939Z,22.86
2017-03-29T04:19:56.874Z,22.76
2017-03-29T04:20:56.811Z,22.86
2017-03-29T04:21:56.752Z,22.96
2017-03-29T04:22:56.689Z,22.75
2017-03-29T04:23:56.627Z,23.05
2017-03-29T04:24:56.568Z,23.05
2017-03-29T04:25:56.498Z,23.04
2017-03-29T04:26:56.437Z,23.04
2017-03-29T04:27:56.374Z,22.94
2017-03-29T04:28:56.313Z,23.04
2017-03-29T04:29:56.253Z,23.04
2017-03-29T04:30:56.187Z,23.04
2017-03-29T04:31:56.121Z,23.04
2017-03-29T04:32:56.061Z,23.04
2017-03-29T04:33:55.996Z,22.94
2017-03-29T04:34:55.934Z,23.04
2017-03-29T04:35:55.871Z,23.04
2017-03-29T04:36:55.826Z,22.94
2017-03-29T04:37:55.746Z,22.94
2017-03-29T04:38:55.681Z,22.85
2017-03-29T04:39:55.629Z,23.04
2017-03-29T04:40:55.582Z,22.94
2017-03-29T04:41:55.494Z,22.94
2017-03-29T04:42:55.432Z,22.94
2017-03-29T04:43:55.369Z,22.94
2017-03-29T04:44:55.308Z,22.94
2017-03-29T04:45:55.243Z,22.94
2017-03-29T04:46:55.181Z,22.75
2017-03-29T04:47:55.121Z,23.04
2017-03-29T04:48:55.056Z,22.94
2017-03-29T04:49:54.993Z,22.94
2017-03-29T04:50:54.928Z,22.75
2017-03-29T04:51:54.865Z,22.85
2017-03-29T04:52:54.805Z,22.94
2017-03-29T04:53:54.741Z,22.85
2017-03-29T04:54:54.677Z,22.94
2017-03-29T04:55:54.614Z,22.94
2017-03-29T04:56:54.548Z,22.85
2017-03-29T04:57:54.489Z,23.04
2017-03-29T04:58:54.427Z,22.94
2017-03-29T04:59:54.363Z,22.85
2017-03-29T05:00:54.300Z,22.85
2017-03-29T05:01:54.237Z,23.04
2017-03-29T05:02:54.171Z,22.94
2017-03-29T05:03:54.109Z,22.85
2017-03-29T05:04:54.049Z,22.85
2017-03-29T05:05:53.987Z,23.04
2017-03-29T05:06:53.923Z,23.04
2017-03-29T05:07:53.857Z,23.04
2017-03-29T05:08:53.796Z,22.94
2017-03-29T05:09:53.734Z,22.94
2017-03-29T05:10:53.670Z,23.04
2017-03-29T05:11:53.608Z,22.85
2017-03-29T05:12:53.547Z,22.85
2017-03-29T05:13:53.484Z,23.04
2017-03-29T05:14:53.414Z,23.04
2017-03-29T05:15:53.356Z,22.94
2017-03-29T05:16:53.294Z,22.85
2017-03-29T05:17:53.228Z,22.94
2017-03-29T05:18:53.164Z,22.94
2017-03-29T05:19:53.103Z,22.75
2017-03-29T05:20:53.039Z,23.04
2017-03-29T05:21:52.976Z,23.04
2017-03-29T05:22:52.923Z,22.94
2017-03-29T05:23:52.851Z,23.04
2017-03-29T05:24:52.479Z,23.04
2017-03-29T05:25:52.725Z,23.04
2017-03-29T05:26:52.349Z,23.04
2017-03-29T05:27:52.598Z,23.04
2017-03-29T05:28:52.534Z,22.46
2017-03-29T05:29:52.469Z,23.14
2017-03-29T05:30:52.408Z,23.04
2017-03-29T05:31:52.347Z,23.04
2017-03-29T05:32:52.279Z,22.94
2017-03-29T05:33:52.222Z,23.04
2017-03-29T05:34:52.156Z,23.04
2017-03-29T05:35:52.094Z,23.04
2017-03-29T05:36:52.032Z,22.94
2017-03-29T05:37:51.968Z,23.04
2017-03-29T05:38:51.901Z,23.04
2017-03-29T05:39:51.841Z,22.94
2017-03-29T05:40:51.777Z,23.04
2017-03-29T05:41:51.715Z,22.94
2017-03-29T05:42:51.651Z,22.94
2017-03-29T05:43:51.590Z,22.94
2017-03-29T05:44:51.526Z,23.24
2017-03-29T05:45:51.465Z,22.85
2017-03-29T05:46:51.408Z,22.85
2017-03-29T05:47:51.339Z,22.85
2017-03-29T05:48:51.275Z,22.85
2017-03-29T05:49:51.213Z,22.75
2017-03-29T05:50:51.149Z,22.85
2017-03-29T05:51:51.085Z,22.85
2017-03-29T05:52:51.023Z,22.85
2017-03-29T05:53:50.962Z,22.85
2017-03-29T05:54:50.899Z,22.85
2017-03-29T05:55:50.835Z,22.75
2017-03-29T05:56:50.771Z,22.75
2017-03-29T05:57:50.709Z,22.66
2017-03-29T05:58:50.646Z,23.33
2017-03-29T05:59:50.582Z,23.24
2017-03-29T06:00:50.544Z,22.85
2017-03-29T06:01:50.461Z,23.14
2017-03-29T06:02:50.393Z,23.24
2017-03-29T06:03:50.330Z,23.33
2017-03-29T06:04:50.268Z,22.94
2017-03-29T06:05:50.206Z,23.04
2017-03-29T06:06:50.141Z,22.94
2017-03-29T06:07:50.080Z,23.14
2017-03-29T06:08:50.015Z,23.24
2017-03-29T06:09:49.952Z,23.33
2017-03-29T06:10:49.885Z,23.33
2017-03-29T06:11:49.833Z,23.24
2017-03-29T06:12:49.761Z,23.14
2017-03-29T06:13:49.390Z,23.14
2017-03-29T06:14:49.639Z,23.14
2017-03-29T06:15:49.685Z,23.24
2017-03-29T06:16:49.513Z,23.14
2017-03-29T06:17:49.446Z,23.62
2017-03-29T06:18:49.382Z,23.24
2017-03-29T06:19:49.321Z,23.33
2017-03-29T06:20:49.257Z,23.33
2017-03-29T06:21:48.889Z,23.81
2017-03-29T06:22:49.134Z,23.62
2017-03-29T06:23:49.070Z,23.52
2017-03-29T06:24:49.010Z,23.72
2017-03-29T06:25:48.954Z,23.43
2017-03-29T06:26:48.882Z,23.62
2017-03-29T06:27:48.819Z,23.81
2017-03-29T06:28:48.444Z,23.62
2017-03-29T06:29:48.691Z,23.62
2017-03-29T06:30:48.634Z,23.62
2017-03-29T06:31:48.568Z,23.43
2017-03-29T06:32:48.507Z,23.33
2017-03-29T06:33:48.441Z,23.33
2017-03-29T06:34:48.375Z,23.52
2017-03-29T06:35:48.310Z,23.52
2017-03-29T06:36:48.253Z,23.81
2017-03-29T06:37:48.188Z,23.81
2017-03-29T06:38:48.127Z,23.62
2017-03-29T06:39:48.061Z,23.43
2017-03-29T06:40:48.004Z,23.62
2017-03-29T06:41:47.935Z,23.62
2017-03-29T06:42:47.875Z,23.62
2017-03-29T06:43:47.812Z,23.52
2017-03-29T06:44:47.749Z,23.52
2017-03-29T06:45:47.685Z,23.33
2017-03-29T06:46:47.654Z,23.81
2017-03-29T06:47:47.592Z,23.81
2017-03-29T06:48:47.499Z,24.2
2017-03-29T06:49:47.433Z,24.29
2017-03-29T06:50:47.382Z,24.49
2017-03-29T06:51:47.309Z,24.2
2017-03-29T06:52:47.242Z,24.2
2017-03-29T06:53:47.182Z,24.2
2017-03-29T06:54:47.121Z,24.2
2017-03-29T06:55:46.745Z,24.1
2017-03-29T06:56:47.002Z,24.2
2017-03-29T06:57:46.938Z,24.1
2017-03-29T06:58:46.867Z,24.1
2017-03-29T06:59:46.806Z,24.01
2017-03-29T07:00:46.741Z,24.39
2017-03-29T07:01:46.679Z,24.58
2017-03-29T07:02:46.621Z,24.39
2017-03-29T07:03:46.613Z,24.68
2017-03-29T07:04:46.743Z,24.77
2017-03-29T07:05:46.433Z,24.97
2017-03-29T07:06:46.363Z,24.97
2017-03-29T07:07:46.297Z,25.16
2017-03-29T07:08:46.235Z,24.97
2017-03-29T07:09:46.174Z,25.07
2017-03-29T07:10:46.111Z,25.45
2017-03-29T07:11:46.045Z,25.55
2017-03-29T07:12:45.988Z,25.74
2017-03-29T07:13:45.922Z,25.92
2017-03-29T07:14:45.862Z,25.82
2017-03-29T07:15:45.821Z,25.92
2017-03-29T07:16:45.733Z,25.92
2017-03-29T07:17:45.710Z,25.92
2017-03-29T07:18:45.645Z,26.21
2017-03-29T07:19:45.581Z,26.31
2017-03-29T07:20:45.482Z,26.21
2017-03-29T07:21:45.421Z,26.4
2017-03-29T07:22:45.351Z,26.31
2017-03-29T07:23:45.290Z,26.11
2017-03-29T07:24:45.228Z,26.21
2017-03-29T07:25:45.169Z,26.22
2017-03-29T07:26:45.108Z,26.22
2017-03-29T07:27:45.038Z,26.12
2017-03-29T07:28:44.976Z,26.12
2017-03-29T07:29:44.917Z,26.12
2017-03-29T07:30:44.849Z,26.12
2017-03-29T07:31:44.806Z,26.22
2017-03-29T07:32:44.723Z,26.22
2017-03-29T07:33:44.660Z,26.12
2017-03-29T07:34:44.596Z,26.32
2017-03-29T07:35:44.533Z,26.32
2017-03-29T07:36:44.469Z,26.32
2017-03-29T07:37:44.404Z,26.61
2017-03-29T07:38:44.345Z,26.51
2017-03-29T07:39:44.281Z,26.61
2017-03-29T07:40:43.925Z,26.51
2017-03-29T07:41:44.174Z,26.51
2017-03-29T07:42:44.104Z,26.32
2017-03-29T07:43:43.735Z,26.51
2017-03-29T07:44:44.002Z,26.51
2017-03-29T07:45:43.928Z,26.61
2017-03-29T07:46:43.930Z,26.8
2017-03-29T07:47:43.807Z,27
2017-03-29T07:48:43.431Z,26.51
2017-03-29T07:49:43.665Z,26.8
2017-03-29T07:50:43.636Z,27.28
2017-03-29T07:51:43.252Z,27.28
2017-03-29T07:52:43.704Z,27.19
2017-03-29T07:53:43.461Z,27.09
2017-03-29T07:54:43.413Z,27.19
2017-03-29T07:55:43.270Z,27.09
2017-03-29T07:56:42.915Z,27.19
2017-03-29T07:57:43.152Z,27.38
2017-03-29T07:58:43.114Z,27.38
2017-03-29T07:59:43.021Z,27.19
2017-03-29T08:00:42.990Z,27.09
2017-03-29T08:01:42.890Z,26.8
2017-03-29T08:02:42.831Z,26.9
2017-03-29T08:03:42.769Z,27.19
2017-03-29T08:04:42.708Z,27.38
2017-03-29T08:05:42.641Z,27.19
2017-03-29T08:06:42.588Z,27.67
2017-03-29T08:07:42.517Z,27.67
2017-03-29T08:08:42.477Z,27.57
2017-03-29T08:09:42.396Z,27.67
2017-03-29T08:10:42.325Z,27.28
2017-03-29T08:11:42.268Z,27.57
2017-03-29T08:12:42.198Z,27.38
2017-03-29T08:13:42.166Z,27.38
2017-03-29T08:14:42.085Z,27.19
2017-03-29T08:15:42.014Z,27.19
2017-03-29T08:16:41.949Z,27.19
2017-03-29T08:17:41.898Z,27.38
2017-03-29T08:18:41.823Z,27.19
2017-03-29T08:19:41.769Z,27.86
2017-03-29T08:20:41.697Z,27.57
2017-03-29T08:21:41.666Z,27.57
2017-03-29T08:22:41.300Z,27.67
2017-03-29T08:23:41.535Z,27.38
2017-03-29T08:24:41.469Z,27.76
2017-03-29T08:25:41.470Z,28.05
2017-03-29T08:26:41.596Z,28.15
2017-03-29T08:27:41.306Z,28.25
2017-03-29T08:28:41.225Z,28.15
2017-03-29T08:29:41.158Z,28.25
2017-03-29T08:30:40.823Z,28.34
2017-03-29T08:31:41.043Z,28.34
2017-03-29T08:32:40.657Z,28.25
2017-03-29T08:33:40.937Z,28.25
2017-03-29T08:34:40.903Z,28.25
2017-03-29T08:35:40.828Z,28.34
2017-03-29T08:36:40.698Z,28.25
2017-03-29T08:37:40.644Z,28.15
2017-03-29T08:38:40.266Z,28.25
2017-03-29T08:39:40.556Z,28.15
2017-03-29T08:40:40.511Z,28.25
2017-03-29T08:41:40.087Z,28.34
2017-03-29T08:42:40.436Z,28.44
2017-03-29T08:43:39.988Z,28.25
2017-03-29T08:44:39.880Z,28.63
2017-03-29T08:45:40.141Z,28.44
2017-03-29T08:46:40.080Z,28.44
2017-03-29T08:47:40.014Z,28.25
2017-03-29T08:48:39.945Z,28.63
2017-03-29T08:49:39.879Z,28.44
2017-03-29T08:50:39.817Z,28.34
2017-03-29T08:51:39.751Z,28.44
2017-03-29T08:52:39.701Z,28.44
2017-03-29T08:53:39.625Z,28.44
2017-03-29T08:54:39.606Z,27.86
2017-03-29T08:55:39.517Z,28.63
2017-03-29T08:56:39.436Z,28.63
2017-03-29T08:57:39.379Z,28.63
2017-03-29T08:58:39.362Z,28.63
2017-03-29T08:59:39.278Z,28.53
2017-03-29T09:00:38.873Z,28.44
2017-03-29T09:01:39.127Z,28.55
2017-03-29T09:02:39.056Z,28.64
2017-03-29T09:03:38.994Z,28.64
2017-03-29T09:04:38.928Z,28.55
2017-03-29T09:05:38.868Z,28.64
2017-03-29T09:06:38.804Z,28.45
2017-03-29T09:07:38.743Z,28.45
2017-03-29T09:08:38.732Z,28.64
2017-03-29T09:09:38.628Z,28.55
2017-03-29T09:10:38.624Z,28.36
2017-03-29T09:11:38.503Z,28.45
2017-03-29T09:12:38.453Z,28.84
2017-03-29T09:13:38.377Z,28.45
2017-03-29T09:14:38.303Z,28.64
2017-03-29T09:15:38.241Z,28.64
2017-03-29T09:16:38.179Z,28.64
2017-03-29T09:17:38.116Z,28.84
2017-03-29T09:18:38.054Z,28.74
2017-03-29T09:19:37.992Z,28.74
2017-03-29T09:20:37.932Z,28.74
2017-03-29T09:21:37.886Z,28.64
2017-03-29T09:22:37.809Z,28.94
2017-03-29T09:23:37.773Z,29.13
2017-03-29T09:24:37.717Z,28.84
2017-03-29T09:25:37.639Z,28.94
2017-03-29T09:26:37.651Z,28.94
2017-03-29T09:27:37.525Z,29.13
2017-03-29T09:28:37.529Z,29.13
2017-03-29T09:29:37.483Z,29.34
2017-03-29T09:30:37.417Z,29.24
2017-03-29T09:31:37.254Z,29.43
2017-03-29T09:32:37.243Z,29.72
2017-03-29T09:33:37.121Z,29.82
2017-03-29T09:34:37.106Z,29.34
2017-03-29T09:35:37.008Z,29.24
2017-03-29T09:36:36.956Z,29.82
2017-03-29T09:37:36.636Z,29.72
2017-03-29T09:38:37.079Z,29.63
2017-03-29T09:39:36.815Z,29.63
2017-03-29T09:40:36.740Z,29.53
2017-03-29T09:41:36.620Z,29.72
2017-03-29T09:42:36.576Z,29.63
2017-03-29T09:43:36.493Z,29.82
2017-03-29T09:44:36.749Z,29.72
2017-03-29T09:45:36.619Z,29.72
2017-03-29T09:46:36.349Z,30.01
2017-03-29T09:47:36.324Z,29.82
2017-03-29T09:48:36.233Z,29.72
2017-03-29T09:49:36.165Z,29.72
2017-03-29T09:50:35.819Z,29.91
2017-03-29T09:51:36.008Z,29.82
2017-03-29T09:52:35.957Z,30.11
2017-03-29T09:53:35.951Z,30.21
2017-03-29T09:54:35.855Z,30.69
2017-03-29T09:55:35.788Z,30.3
2017-03-29T09:56:35.785Z,30.3
2017-03-29T09:57:35.673Z,30.21
2017-03-29T09:58:35.577Z,30.01
2017-03-29T09:59:35.517Z,29.82
2017-03-29T10:00:35.490Z,29.82
2017-03-29T10:01:35.425Z,29.82
2017-03-29T10:02:35.404Z,29.82
2017-03-29T10:03:35.340Z,29.72
2017-03-29T10:04:35.242Z,29.82
2017-03-29T10:05:35.197Z,29.72
2017-03-29T10:06:35.150Z,29.82
2017-03-29T10:07:35.129Z,29.72
2017-03-29T10:08:35.024Z,29.24
2017-03-29T10:09:34.920Z,29.34
2017-03-29T10:10:35.178Z,29.24
2017-03-29T10:11:34.832Z,29.24
2017-03-29T10:12:34.698Z,28.95
2017-03-29T10:13:34.742Z,29.05
2017-03-29T10:14:34.619Z,28.95
2017-03-29T10:15:34.525Z,28.95
2017-03-29T10:16:34.535Z,28.85
2017-03-29T10:17:34.459Z,28.76
2017-03-29T10:18:34.437Z,28.66
2017-03-29T10:19:34.349Z,29.24
2017-03-29T10:20:34.317Z,28.76
2017-03-29T10:21:33.882Z,28.76
2017-03-29T10:22:34.146Z,28.76
2017-03-29T10:23:34.025Z,28.66
2017-03-29T10:24:33.948Z,28.85
2017-03-29T10:25:33.862Z,28.85
2017-03-29T10:26:33.830Z,28.76
2017-03-29T10:27:33.519Z,28.85
2017-03-29T10:28:33.707Z,28.56
2017-03-29T10:29:33.715Z,28.56
2017-03-29T10:30:33.630Z,28.56
2017-03-29T10:31:33.562Z,28.66
2017-03-29T10:32:33.515Z,28.66
2017-03-29T10:33:33.072Z,28.76
2017-03-29T10:34:33.401Z,28.66
2017-03-29T10:35:33.314Z,28.47
2017-03-29T10:36:33.714Z,28.28
2017-03-29T10:37:33.222Z,28.85
2017-03-29T10:38:33.169Z,28.76
2017-03-29T10:39:33.032Z,28.37
2017-03-29T10:40:33.019Z,28.28
2017-03-29T10:41:32.929Z,28.66
2017-03-29T10:42:32.822Z,28.56
2017-03-29T10:43:32.759Z,28.56
2017-03-29T10:44:33.084Z,28.37
2017-03-29T10:45:32.635Z,28.37
2017-03-29T10:46:32.571Z,28.37
2017-03-29T10:47:32.511Z,28.47
2017-03-29T10:48:32.450Z,28.56
2017-03-29T10:49:32.385Z,28.37
2017-03-29T10:50:32.322Z,28.37
2017-03-29T10:51:32.259Z,28.47
2017-03-29T10:52:32.200Z,28.47
2017-03-29T10:53:32.140Z,28.66
2017-03-29T10:54:32.077Z,28.47
2017-03-29T10:55:32.012Z,28.47
2017-03-29T10:56:31.950Z,28.66
2017-03-29T10:57:31.891Z,28.56
2017-03-29T10:58:31.829Z,28.56
2017-03-29T10:59:31.464Z,28.56
2017-03-29T11:00:31.703Z,28.66
2017-03-29T11:01:31.642Z,28.56
2017-03-29T11:02:31.578Z,28.76
2017-03-29T11:03:31.524Z,28.56
2017-03-29T11:04:31.463Z,28.47
2017-03-29T11:05:31.393Z,28.08
2017-03-29T11:06:31.331Z,27.98
2017-03-29T11:07:31.277Z,28.28
2017-03-29T11:08:30.899Z,28.18
2017-03-29T11:09:31.141Z,28.28
2017-03-29T11:10:31.230Z,28.18
2017-03-29T11:11:31.021Z,28.18
2017-03-29T11:12:30.647Z,28.18
2017-03-29T11:13:30.898Z,28.28
2017-03-29T11:14:30.837Z,27.8
2017-03-29T11:15:30.768Z,28.28
2017-03-29T11:16:30.708Z,27.7
2017-03-29T11:17:30.645Z,27.89
2017-03-29T11:18:30.587Z,27.98
2017-03-29T11:19:30.523Z,28.08
2017-03-29T11:20:30.461Z,27.5
2017-03-29T11:21:30.403Z,27.7
2017-03-29T11:22:30.339Z,28.18
2017-03-29T11:23:30.274Z,28.08
2017-03-29T11:24:30.215Z,27.6
2017-03-29T11:25:30.147Z,28.08
2017-03-29T11:26:30.089Z,27.98
2017-03-29T11:27:29.716Z,28.08
2017-03-29T11:28:29.963Z,27.7
2017-03-29T11:29:29.902Z,28.08
2017-03-29T11:30:29.839Z,28.28
2017-03-29T11:31:29.778Z,28.37
2017-03-29T11:32:29.715Z,28.28
2017-03-29T11:33:29.688Z,28.37
2017-03-29T11:34:29.630Z,28.08
2017-03-29T11:35:29.537Z,28.47
2017-03-29T11:36:29.474Z,28.28
2017-03-29T11:37:29.491Z,28.28
2017-03-29T11:38:29.410Z,28.28
2017-03-29T11:39:29.283Z,28.08
2017-03-29T11:40:29.232Z,28.56
2017-03-29T11:41:29.179Z,28.37
2017-03-29T11:42:29.120Z,28.18
2017-03-29T11:43:29.042Z,28.47
2017-03-29T11:44:28.972Z,28.56
2017-03-29T11:45:28.906Z,28.66
2017-03-29T11:46:28.856Z,28.66
2017-03-29T11:47:28.844Z,28.56
2017-03-29T11:48:28.752Z,28.37
2017-03-29T11:49:28.861Z,28.56
2017-03-29T11:50:28.600Z,28.47
2017-03-29T11:51:28.538Z,28.76
2017-03-29T11:52:28.164Z,28.37
2017-03-29T11:53:28.409Z,28.48
2017-03-29T11:54:28.407Z,28.47
2017-03-29T11:55:28.291Z,28.47
2017-03-29T11:56:28.225Z,28.56
2017-03-29T11:57:28.220Z,28.66
2017-03-29T11:58:27.794Z,28.76
2017-03-29T11:59:28.036Z,28.95
2017-03-29T12:00:27.982Z,28.76
2017-03-29T12:01:27.915Z,28.95
2017-03-29T12:02:27.859Z,28.76
2017-03-29T12:03:27.790Z,28.66
2017-03-29T12:04:27.418Z,28.85
2017-03-29T12:05:27.363Z,28.95
2017-03-29T12:06:27.606Z,28.95
2017-03-29T12:07:27.553Z,29.05
2017-03-29T12:08:27.480Z,29.24
2017-03-29T12:09:27.416Z,29.24
2017-03-29T12:10:27.355Z,29.24
2017-03-29T12:11:26.983Z,29.82
2017-03-29T12:12:27.243Z,29.82
2017-03-29T12:13:27.400Z,29.82
2017-03-29T12:14:26.798Z,29.82
2017-03-29T12:15:27.046Z,29.72
2017-03-29T12:16:26.991Z,29.63
2017-03-29T12:17:26.930Z,29.82
2017-03-29T12:18:26.551Z,29.63
2017-03-29T12:19:26.803Z,29.63
2017-03-29T12:20:27.089Z,29.63
2017-03-29T12:21:26.672Z,29.82
2017-03-29T12:22:26.615Z,29.82
2017-03-29T12:23:26.551Z,29.82
2017-03-29T12:24:26.486Z,30.01
2017-03-29T12:25:26.424Z,30.01
2017-03-29T12:26:26.052Z,30.01
2017-03-29T12:27:26.300Z,30.21
2017-03-29T12:28:26.241Z,30.21
2017-03-29T12:29:26.201Z,30.11
2017-03-29T12:30:26.114Z,30.11
2017-03-29T12:31:26.058Z,30.3
2017-03-29T12:32:25.682Z,30.4
2017-03-29T12:33:25.980Z,30.4
2017-03-29T12:34:25.867Z,30.59
2017-03-29T12:35:25.806Z,30.69
2017-03-29T12:36:25.739Z,30.69
2017-03-29T12:37:25.686Z,30.59
2017-03-29T12:38:25.619Z,30.79
2017-03-29T12:39:25.557Z,30.49
2017-03-29T12:40:25.497Z,30.88
2017-03-29T12:41:25.124Z,30.88
2017-03-29T12:42:25.372Z,30.88
2017-03-29T12:43:25.314Z,31.07
2017-03-29T12:44:24.948Z,31.17
2017-03-29T12:45:24.876Z,31.27
2017-03-29T12:46:25.124Z,31.27
2017-03-29T12:47:25.058Z,31.17
2017-03-29T12:48:24.998Z,31.37
2017-03-29T12:49:24.625Z,31.37
2017-03-29T12:50:24.910Z,31.46
2017-03-29T12:51:24.813Z,31.27
2017-03-29T12:52:24.748Z,31.17
2017-03-29T12:53:24.689Z,31.07
2017-03-29T12:54:24.629Z,31.27
2017-03-29T12:55:24.716Z,31.75